createdAt,value
2022-12-18T00:01:31.752Z,-12.10
2022-12-18T00:03:59.996Z,-12.10
2022-12-18T00:06:30.048Z,-12.10
2022-12-18T00:08:59.640Z,-12.10
2022-12-18T00:11:30.275Z,-12.00
2022-12-18T00:14:03.997Z,-11.90
2022-12-18T00:16:36.855Z,-11.90
2022-12-18T00:19:06.042Z,-12.00
2022-12-18T00:21:34.846Z,-11.90
2022-12-18T00:24:03.078Z,-11.90
2022-12-18T00:26:33.514Z,-11.90
2022-12-18T00:29:15.836Z,-11.80
2022-12-18T00:31:45.554Z,-11.80
2022-12-18T00:34:15.220Z,-11.70
2022-12-18T00:36:43.502Z,-11.70
2022-12-18T00:39:13.021Z,-11.60
2022-12-18T00:41:59.846Z,-11.60
2022-12-18T00:44:27.849Z,-11.60
2022-12-18T00:46:55.774Z,-11.50
2022-12-18T00:49:23.720Z,-11.60
2022-12-18T00:51:51.663Z,-11.70
2022-12-18T00:54:19.865Z,-11.70
2022-12-18T00:56:49.855Z,-11.70
2022-12-18T00:59:27.944Z,-11.70
2022-12-18T01:01:56.042Z,-11.60
2022-12-18T01:04:24.069Z,-11.70
2022-12-18T01:06:52.201Z,-11.70
2022-12-18T01:09:20.249Z,-11.70
2022-12-18T01:11:48.147Z,-11.70
2022-12-18T01:14:16.033Z,-11.70
2022-12-18T01:16:44.061Z,-11.80
2022-12-18T01:19:12.547Z,-11.90
2022-12-18T01:21:40.491Z,-12.10
2022-12-18T01:24:09.189Z,-12.10
2022-12-18T01:26:37.171Z,-12.10
2022-12-18T01:29:05.080Z,-12.20
2022-12-18T01:31:35.400Z,-12.20
2022-12-18T01:34:06.066Z,-12.20
2022-12-18T01:36:38.877Z,-12.10
2022-12-18T01:39:09.825Z,-12.00
2022-12-18T01:42:03.911Z,-12.10
2022-12-18T01:44:59.797Z,-12.10
2022-12-18T01:47:47.571Z,-12.20
2022-12-18T01:50:25.603Z,-12.30
2022-12-18T01:53:00.132Z,-12.20
2022-12-18T01:55:31.669Z,-12.20
2022-12-18T01:58:01.549Z,-12.10
2022-12-18T02:00:30.012Z,-12.10
2022-12-18T02:02:58.231Z,-12.10
2022-12-18T02:05:45.917Z,-12.10
2022-12-18T02:08:25.638Z,-12.10
2022-12-18T02:11:20.485Z,-12.00
2022-12-18T02:14:18.906Z,-11.90
2022-12-18T02:17:13.440Z,-11.80
2022-12-18T02:20:03.297Z,-11.60
2022-12-18T02:22:50.230Z,-11.50
2022-12-18T02:25:55.347Z,-11.50
2022-12-18T02:28:28.333Z,-11.40
2022-12-18T02:31:08.472Z,-11.20
2022-12-18T02:33:38.697Z,-11.10
2022-12-18T02:36:11.557Z,-11.00
2022-12-18T02:38:44.492Z,-10.90
2022-12-18T02:41:16.192Z,-10.80
2022-12-18T02:44:03.706Z,-10.70
2022-12-18T02:46:37.825Z,-10.60
2022-12-18T02:49:34.049Z,-10.50
2022-12-18T02:52:24.116Z,-10.40
2022-12-18T02:55:07.185Z,-10.30
2022-12-18T02:57:50.288Z,-10.20
2022-12-18T03:00:49.124Z,-10.10
2022-12-18T03:03:32.118Z,-10.00
2022-12-18T03:06:17.229Z,-9.90
2022-12-18T03:08:51.078Z,-9.90
2022-12-18T03:11:42.641Z,-9.80
2022-12-18T03:14:13.538Z,-9.70
2022-12-18T03:16:43.594Z,-9.70
2022-12-18T03:19:23.695Z,-9.70
2022-12-18T03:21:57.869Z,-9.60
2022-12-18T03:24:29.952Z,-9.50
2022-12-18T03:27:04.589Z,-9.50
2022-12-18T03:29:47.359Z,-9.40
2022-12-18T03:32:35.811Z,-9.30
2022-12-18T03:35:07.566Z,-9.20
2022-12-18T03:37:38.631Z,-9.20
2022-12-18T03:40:08.208Z,-9.10
2022-12-18T03:43:03.153Z,-9.10
2022-12-18T03:45:40.235Z,-9.00
2022-12-18T03:48:23.274Z,-8.90
2022-12-18T03:51:10.079Z,-8.90
2022-12-18T03:53:58.224Z,-8.90
2022-12-18T03:56:35.700Z,-8.80
2022-12-18T03:59:06.734Z,-8.70
2022-12-18T04:01:39.427Z,-8.70
2022-12-18T04:04:10.446Z,-8.70
2022-12-18T04:06:41.211Z,-8.70
2022-12-18T04:09:16.833Z,-8.70
2022-12-18T04:11:48.828Z,-8.60
2022-12-18T04:14:18.607Z,-8.60
2022-12-18T04:16:50.305Z,-8.50
2022-12-18T04:19:21.028Z,-8.40
2022-12-18T04:21:51.792Z,-8.40
2022-12-18T04:24:19.784Z,-8.30
2022-12-18T04:26:59.360Z,-8.30
2022-12-18T04:29:33.010Z,-8.20
2022-12-18T04:32:01.116Z,-8.20
2022-12-18T04:34:31.118Z,-8.10
2022-12-18T04:36:59.988Z,-8.10
2022-12-18T04:39:28.445Z,-8.00
2022-12-18T04:42:04.026Z,-8.00
2022-12-18T04:44:31.817Z,-7.90
2022-12-18T04:46:59.690Z,-7.90
2022-12-18T04:49:27.656Z,-7.80
2022-12-18T04:51:55.624Z,-7.80
2022-12-18T04:54:23.622Z,-7.70
2022-12-18T04:56:51.609Z,-7.70
2022-12-18T04:59:19.574Z,-7.60
2022-12-18T05:01:48.121Z,-7.60
2022-12-18T05:04:20.466Z,-7.50
2022-12-18T05:06:51.441Z,-7.50
2022-12-18T05:09:19.502Z,-7.50
2022-12-18T05:11:50.187Z,-7.40
2022-12-18T05:14:18.069Z,-7.40
2022-12-18T05:16:45.934Z,-7.40
2022-12-18T05:19:14.047Z,-7.30
2022-12-18T05:21:42.289Z,-7.30
2022-12-18T05:24:10.401Z,-7.20
2022-12-18T05:26:38.359Z,-7.20
2022-12-18T05:29:06.354Z,-7.20
2022-12-18T05:31:39.044Z,-7.10
2022-12-18T05:34:08.460Z,-7.10
2022-12-18T05:36:36.452Z,-7.00
2022-12-18T05:39:04.841Z,-7.00
2022-12-18T05:41:34.116Z,-6.90
2022-12-18T05:44:02.191Z,-6.90
2022-12-18T05:46:30.230Z,-6.80
2022-12-18T05:49:03.188Z,-6.80
2022-12-18T05:51:31.128Z,-6.80
2022-12-18T05:53:59.030Z,-6.80
2022-12-18T05:56:26.950Z,-6.70
2022-12-18T05:58:56.297Z,-6.70
2022-12-18T06:01:27.165Z,-6.70
2022-12-18T06:03:55.782Z,-6.60
2022-12-18T06:06:29.589Z,-6.60
2022-12-18T06:08:58.597Z,-6.60
2022-12-18T06:11:28.289Z,-6.50
2022-12-18T06:14:00.256Z,-6.50
2022-12-18T06:16:30.065Z,-6.40
2022-12-18T06:19:00.139Z,-6.40
2022-12-18T06:21:29.444Z,-6.40
2022-12-18T06:24:09.202Z,-6.40
2022-12-18T06:26:40.973Z,-6.30
2022-12-18T06:29:09.105Z,-6.30
2022-12-18T06:31:37.031Z,-6.20
2022-12-18T06:34:06.046Z,-6.20
2022-12-18T06:36:34.443Z,-6.20
2022-12-18T06:39:02.456Z,-6.10
2022-12-18T06:41:30.365Z,-6.10
2022-12-18T06:44:00.341Z,-6.00
2022-12-18T06:46:28.744Z,-6.00
2022-12-18T06:48:56.709Z,-6.00
2022-12-18T06:51:27.306Z,-5.90
2022-12-18T06:53:55.261Z,-5.90
2022-12-18T06:56:23.250Z,-5.90
2022-12-18T06:58:52.431Z,-5.80
2022-12-18T07:01:20.722Z,-5.80
2022-12-18T07:03:49.114Z,-5.70
2022-12-18T07:06:19.705Z,-5.70
2022-12-18T07:08:48.980Z,-5.60
2022-12-18T07:11:17.751Z,-5.60
2022-12-18T07:13:46.172Z,-5.50
2022-12-18T07:16:22.585Z,-5.50
2022-12-18T07:18:53.690Z,-5.40
2022-12-18T07:21:22.194Z,-5.40
2022-12-18T07:23:52.977Z,-5.30
2022-12-18T07:26:25.406Z,-5.30
2022-12-18T07:29:00.647Z,-5.30
2022-12-18T07:31:29.197Z,-5.20
2022-12-18T07:33:57.362Z,-5.20
2022-12-18T07:36:25.535Z,-5.20
2022-12-18T07:38:55.004Z,-5.10
2022-12-18T07:41:23.194Z,-5.10
2022-12-18T07:43:51.225Z,-5.00
2022-12-18T07:46:19.500Z,-5.00
2022-12-18T07:48:49.404Z,-5.00
2022-12-18T07:51:20.481Z,-5.00
2022-12-18T07:53:49.341Z,-4.90
2022-12-18T07:56:29.481Z,-4.90
2022-12-18T07:58:58.699Z,-4.90
2022-12-18T08:01:30.169Z,-4.90
2022-12-18T08:03:59.713Z,-4.80
2022-12-18T08:06:27.925Z,-4.80
2022-12-18T08:08:57.420Z,-4.70
2022-12-18T08:11:27.188Z,-4.70
2022-12-18T08:13:55.602Z,-4.60
2022-12-18T08:16:24.842Z,-4.60
2022-12-18T08:18:55.298Z,-4.50
2022-12-18T08:21:26.699Z,-4.50
2022-12-18T08:23:55.905Z,-4.50
2022-12-18T08:36:02.378Z,-4.30
2022-12-18T08:38:30.695Z,-4.30
2022-12-18T08:41:11.525Z,-4.20
2022-12-18T08:44:00.664Z,-4.10
2022-12-18T08:46:33.232Z,-4.00
2022-12-18T08:49:01.232Z,-3.90
2022-12-18T08:51:32.172Z,-3.80
2022-12-18T08:54:00.168Z,-3.80
2022-12-18T08:56:28.108Z,-3.70
2022-12-18T08:58:56.848Z,-3.60
2022-12-18T09:01:25.228Z,-3.70
2022-12-18T09:03:53.757Z,-3.60
2022-12-18T09:06:24.429Z,-3.50
2022-12-18T09:08:52.556Z,-3.50
2022-12-18T09:11:26.846Z,-3.40
2022-12-18T09:13:56.647Z,-3.40
2022-12-18T09:16:30.373Z,-3.30
2022-12-18T09:19:04.044Z,-3.30
2022-12-18T09:21:37.504Z,-3.30
2022-12-18T09:24:13.859Z,-3.20
2022-12-18T09:26:41.721Z,-3.20
2022-12-18T09:29:11.565Z,-3.10
2022-12-18T09:31:40.414Z,-3.10
2022-12-18T09:34:08.466Z,-3.00
2022-12-18T09:36:36.445Z,-2.90
2022-12-18T09:39:08.478Z,-2.90
2022-12-18T09:41:46.135Z,-2.90
2022-12-18T09:44:17.860Z,-2.80
2022-12-18T09:46:55.974Z,-2.80
2022-12-18T09:49:30.818Z,-2.80
2022-12-18T09:52:14.315Z,-2.80
2022-12-18T09:55:07.736Z,-2.80
2022-12-18T09:57:41.695Z,-2.70
2022-12-18T10:00:12.826Z,-2.70
2022-12-18T10:02:40.932Z,-2.70
2022-12-18T10:05:19.115Z,-2.70
2022-12-18T10:08:08.726Z,-2.60
2022-12-18T10:10:50.725Z,-2.60
2022-12-18T10:13:31.513Z,-2.60
2022-12-18T10:16:12.364Z,-2.50
2022-12-18T10:19:02.294Z,-2.50
2022-12-18T10:21:50.599Z,-2.50
2022-12-18T10:24:39.347Z,-2.60
2022-12-18T10:27:17.303Z,-2.60
2022-12-18T10:29:47.099Z,-2.50
2022-12-18T10:32:26.998Z,-2.40
2022-12-18T10:35:00.519Z,-2.40
2022-12-18T10:37:31.665Z,-2.40
2022-12-18T10:40:22.364Z,-2.40
2022-12-18T10:43:13.799Z,-2.50
2022-12-18T10:45:42.305Z,-2.50
2022-12-18T10:48:21.464Z,-2.50
2022-12-18T10:53:41.624Z,-2.40
2022-12-18T10:56:09.656Z,-2.40
2022-12-18T10:58:39.963Z,-2.40
2022-12-18T11:01:15.267Z,-2.40
2022-12-18T11:04:03.070Z,-2.40
2022-12-18T11:06:31.787Z,-2.30
2022-12-18T11:09:14.474Z,-2.20
2022-12-18T11:11:54.312Z,-2.20
2022-12-18T11:14:48.008Z,-2.10
2022-12-18T11:17:32.167Z,-2.00
2022-12-18T11:20:04.820Z,-2.10
2022-12-18T11:22:34.707Z,-2.00
2022-12-18T11:25:32.370Z,-2.00
2022-12-18T11:28:00.645Z,-2.00
2022-12-18T11:30:37.195Z,-2.00
2022-12-18T11:33:20.992Z,-1.90
2022-12-18T11:35:57.359Z,-1.90
2022-12-18T11:38:38.099Z,-1.80
2022-12-18T11:41:12.562Z,-1.80
2022-12-18T11:43:52.609Z,-1.70
2022-12-18T11:46:28.675Z,-1.70
2022-12-18T11:49:14.789Z,-1.70
2022-12-18T11:52:06.776Z,-1.60
2022-12-18T11:54:34.759Z,-1.60
2022-12-18T11:57:29.517Z,-1.50
2022-12-18T12:00:17.759Z,-1.50
2022-12-18T12:03:10.595Z,-1.60
2022-12-18T12:06:09.358Z,-1.60
2022-12-18T12:08:37.188Z,-1.70
2022-12-18T12:11:24.717Z,-1.70
2022-12-18T12:14:10.003Z,-1.70
2022-12-18T12:17:08.012Z,-1.70
2022-12-18T12:19:47.951Z,-1.60
2022-12-18T12:22:59.949Z,-1.60
2022-12-18T12:25:50.884Z,-1.50
2022-12-18T12:28:49.046Z,-1.40
2022-12-18T12:31:49.745Z,-1.40
2022-12-18T12:34:45.812Z,-1.40
2022-12-18T12:37:34.628Z,-1.30
2022-12-18T12:40:26.872Z,-1.30
2022-12-18T12:43:17.695Z,-1.30
2022-12-18T12:46:03.652Z,-1.30
2022-12-18T12:48:50.760Z,-1.30
2022-12-18T12:51:30.166Z,-1.30
2022-12-18T12:54:00.150Z,-1.20
2022-12-18T12:57:13.071Z,-1.20
2022-12-18T12:59:51.300Z,-1.00
2022-12-18T13:02:41.553Z,-0.70
2022-12-18T13:05:27.844Z,-1.00
2022-12-18T13:08:04.699Z,-1.10
2022-12-18T13:10:43.405Z,-1.20
2022-12-18T13:13:16.471Z,-1.20
2022-12-18T13:15:47.670Z,-1.20
2022-12-18T13:18:28.051Z,-1.20
2022-12-18T13:21:01.321Z,-1.30
2022-12-18T13:23:39.415Z,-1.30
2022-12-18T13:26:24.695Z,-1.30
2022-12-18T13:28:57.818Z,-1.30
2022-12-18T13:31:41.088Z,-1.10
2022-12-18T13:34:27.617Z,-1.10
2022-12-18T13:37:12.509Z,-1.00
2022-12-18T13:39:40.893Z,-1.00
2022-12-18T13:42:09.726Z,-1.10
2022-12-18T13:44:43.199Z,-1.20
2022-12-18T13:47:35.277Z,-1.20
2022-12-18T13:50:12.342Z,-1.30
2022-12-18T13:52:41.917Z,-1.40
2022-12-18T13:55:20.780Z,-1.40
2022-12-18T13:57:49.499Z,-1.50
2022-12-18T14:00:34.332Z,-1.50
2022-12-18T14:03:39.001Z,-1.60
2022-12-18T14:06:10.992Z,-1.60
2022-12-18T14:08:45.263Z,-1.70
2022-12-18T14:11:26.448Z,-1.70
2022-12-18T14:13:54.938Z,-1.70
2022-12-18T14:16:24.008Z,-1.70
2022-12-18T14:19:02.680Z,-1.70
2022-12-18T14:21:55.151Z,-1.80
2022-12-18T14:24:23.868Z,-1.80
2022-12-18T14:26:52.992Z,-1.80
2022-12-18T14:29:30.636Z,-1.80
2022-12-18T14:32:19.172Z,-1.80
2022-12-18T14:34:49.099Z,-1.90
2022-12-18T14:37:22.251Z,-2.00
2022-12-18T14:39:56.548Z,-2.00
2022-12-18T14:42:24.694Z,-2.00
2022-12-18T14:45:13.566Z,-2.10
2022-12-18T14:47:40.576Z,-2.10
2022-12-18T14:50:16.396Z,-2.20
2022-12-18T14:52:44.339Z,-2.30
2022-12-18T14:55:20.372Z,-2.30
2022-12-18T14:57:53.402Z,-2.40
2022-12-18T15:00:24.694Z,-2.40
2022-12-18T15:02:58.437Z,-2.50
2022-12-18T15:05:31.746Z,-2.50
2022-12-18T15:08:02.386Z,-2.50
2022-12-18T15:10:33.293Z,-2.50
2022-12-18T15:13:02.597Z,-2.60
2022-12-18T15:15:41.638Z,-2.60
2022-12-18T15:19:26.889Z,-2.70
2022-12-18T15:21:54.835Z,-2.70
2022-12-18T15:24:29.539Z,-2.70
2022-12-18T15:26:58.299Z,-2.80
2022-12-18T15:29:27.469Z,-2.80
2022-12-18T15:32:04.997Z,-2.80
2022-12-18T15:34:36.106Z,-2.90
2022-12-18T15:37:04.299Z,-2.90
2022-12-18T15:39:32.141Z,-2.90
2022-12-18T15:42:18.682Z,-3.00
2022-12-18T15:44:47.191Z,-3.00
2022-12-18T15:47:15.620Z,-3.00
2022-12-18T15:49:44.464Z,-3.10
2022-12-18T15:52:15.302Z,-3.10
2022-12-18T15:55:01.848Z,-3.10
2022-12-18T15:57:29.765Z,-3.10
2022-12-18T16:00:00.135Z,-3.10
2022-12-18T16:02:31.986Z,-3.10
2022-12-18T16:05:00.081Z,-3.10
2022-12-18T16:07:30.590Z,-3.10
2022-12-18T16:10:01.639Z,-3.10
2022-12-18T16:12:30.764Z,-3.10
2022-12-18T16:14:58.597Z,-3.10
2022-12-18T16:17:26.648Z,-3.10
2022-12-18T16:19:54.864Z,-3.10
2022-12-18T16:22:26.107Z,-3.10
2022-12-18T16:24:55.376Z,-3.10
2022-12-18T16:27:25.037Z,-3.10
2022-12-18T16:29:52.893Z,-3.20
2022-12-18T16:32:23.538Z,-3.20
2022-12-18T16:34:52.652Z,-3.20
2022-12-18T16:37:21.102Z,-3.30
2022-12-18T16:39:49.089Z,-3.30
2022-12-18T16:42:21.337Z,-3.30
2022-12-18T16:44:50.400Z,-3.30
2022-12-18T16:47:19.310Z,-3.40
2022-12-18T16:49:47.667Z,-3.40
2022-12-18T16:52:17.069Z,-3.40
2022-12-18T16:54:46.385Z,-3.40
2022-12-18T16:57:21.142Z,-3.50
2022-12-18T16:59:57.695Z,-3.50
2022-12-18T17:02:30.228Z,-3.50
2022-12-18T17:05:00.132Z,-3.50
2022-12-18T17:07:29.368Z,-3.50
2022-12-18T17:09:57.549Z,-3.60
2022-12-18T17:12:26.030Z,-3.60
2022-12-18T17:14:53.876Z,-3.60
2022-12-18T17:17:23.605Z,-3.60
2022-12-18T17:19:53.195Z,-3.60
2022-12-18T17:22:22.405Z,-3.70
2022-12-18T17:24:53.455Z,-3.70
2022-12-18T17:27:21.388Z,-3.70
2022-12-18T17:29:49.344Z,-3.70
2022-12-18T17:32:18.443Z,-3.30
2022-12-18T17:34:46.596Z,-3.30
2022-12-18T17:37:16.852Z,-3.50
2022-12-18T17:39:44.864Z,-3.60
2022-12-18T17:42:15.900Z,-3.70
2022-12-18T17:44:44.338Z,-3.80
2022-12-18T17:47:14.049Z,-3.80
2022-12-18T17:49:42.035Z,-3.80
2022-12-18T17:52:10.300Z,-3.90
2022-12-18T17:54:40.702Z,-3.90
2022-12-18T17:57:08.709Z,-3.90
2022-12-18T17:59:36.817Z,-3.90
2022-12-18T18:02:04.916Z,-3.90
2022-12-18T18:04:32.875Z,-3.90
2022-12-18T18:07:00.789Z,-3.90
2022-12-18T18:09:28.794Z,-3.90
2022-12-18T18:12:16.276Z,-3.90
2022-12-18T18:14:45.871Z,-3.80
2022-12-18T18:17:14.099Z,-3.80
2022-12-18T18:19:44.178Z,-3.70
2022-12-18T18:22:16.089Z,-3.70
2022-12-18T18:24:45.771Z,-3.70
2022-12-18T18:27:14.575Z,-3.70
2022-12-18T18:29:42.956Z,-3.80
2022-12-18T18:32:10.990Z,-3.80
2022-12-18T18:34:41.819Z,-3.80
2022-12-18T18:37:11.337Z,-3.70
2022-12-18T18:39:39.316Z,-3.70
2022-12-18T18:42:07.473Z,-3.70
2022-12-18T18:44:36.245Z,-3.70
2022-12-18T18:47:04.958Z,-3.70
2022-12-18T18:49:36.465Z,-3.70
2022-12-18T18:52:04.396Z,-3.70
2022-12-18T18:54:32.497Z,-3.70
2022-12-18T18:59:51.826Z,-3.70
2022-12-18T19:02:20.532Z,-3.70
2022-12-18T19:04:48.830Z,-3.70
2022-12-18T19:07:29.921Z,-3.70
2022-12-18T19:10:05.214Z,-3.70
2022-12-18T19:12:52.971Z,-3.70
2022-12-18T19:15:23.054Z,-3.70
2022-12-18T19:17:51.018Z,-3.70
2022-12-18T19:20:19.412Z,-3.60
2022-12-18T19:22:55.204Z,-3.60
2022-12-18T19:25:40.327Z,-3.60
2022-12-18T19:28:21.949Z,-3.60
2022-12-18T19:30:50.865Z,-3.60
2022-12-18T19:36:31.988Z,-3.60
2022-12-18T19:39:04.583Z,-3.60
2022-12-18T19:41:32.956Z,-3.60
2022-12-18T19:44:07.936Z,-3.60
2022-12-18T19:46:41.716Z,-3.60
2022-12-18T19:49:11.752Z,-3.60
2022-12-18T19:51:45.318Z,-3.60
2022-12-18T19:54:17.103Z,-3.60
2022-12-18T19:56:46.116Z,-3.60
2022-12-18T19:59:14.577Z,-3.60
2022-12-18T20:01:42.690Z,-3.60
2022-12-18T20:04:10.946Z,-3.60
2022-12-18T20:06:51.159Z,-3.60
2022-12-18T20:09:19.946Z,-3.60
2022-12-18T20:11:49.064Z,-3.60
2022-12-18T20:14:23.100Z,-3.60
2022-12-18T20:16:53.458Z,-3.60
2022-12-18T20:19:25.722Z,-3.60
2022-12-18T20:21:57.196Z,-3.60
2022-12-18T20:24:30.671Z,-3.60
2022-12-18T20:26:58.718Z,-3.60
2022-12-18T20:29:32.134Z,-3.60
2022-12-18T20:32:00.723Z,-3.60
2022-12-18T20:34:28.674Z,-3.60
2022-12-18T20:36:57.490Z,-3.60
2022-12-18T20:39:28.693Z,-3.60
2022-12-18T20:41:57.323Z,-3.60
2022-12-18T20:44:25.182Z,-3.50
2022-12-18T20:46:56.068Z,-3.50
2022-12-18T20:49:25.816Z,-3.50
2022-12-18T20:51:55.520Z,-3.50
2022-12-18T20:54:25.033Z,-3.40
2022-12-18T20:56:53.422Z,-3.50
2022-12-18T20:59:22.041Z,-3.50
2022-12-18T21:01:51.000Z,-3.50
2022-12-18T21:04:20.219Z,-3.50
2022-12-18T21:06:59.165Z,-3.40
2022-12-18T21:09:37.341Z,-3.40
2022-12-18T21:12:35.117Z,-3.40
2022-12-18T21:15:11.400Z,-3.40
2022-12-18T21:17:44.639Z,-3.40
2022-12-18T21:20:18.003Z,-3.40
2022-12-18T21:22:46.637Z,-3.40
2022-12-18T21:25:15.023Z,-3.40
2022-12-18T21:27:43.057Z,-3.40
2022-12-18T21:30:11.498Z,-3.40
2022-12-18T21:32:39.668Z,-3.40
2022-12-18T21:35:07.833Z,-3.40
2022-12-18T21:37:35.990Z,-3.40
2022-12-18T21:40:05.415Z,-3.40
2022-12-18T21:42:54.982Z,-3.40
2022-12-18T21:45:23.371Z,-3.40
2022-12-18T21:47:51.317Z,-3.40
2022-12-18T21:50:19.360Z,-3.40
2022-12-18T21:52:47.287Z,-3.40
2022-12-18T21:55:15.193Z,-3.40
2022-12-18T21:57:57.476Z,-3.40
2022-12-18T22:00:29.202Z,-3.40
2022-12-18T22:03:16.961Z,-3.40
2022-12-18T22:05:57.087Z,-3.40
2022-12-18T22:08:42.858Z,-3.40
2022-12-18T22:11:16.244Z,-3.40
2022-12-18T22:13:48.694Z,-3.40
2022-12-18T22:16:16.634Z,-3.40
2022-12-18T22:18:44.554Z,-3.40
2022-12-18T22:21:30.573Z,-3.30
2022-12-18T22:24:14.126Z,-3.40
2022-12-18T22:26:42.433Z,-3.40
2022-12-18T22:29:43.136Z,-3.30
2022-12-18T22:32:30.553Z,-3.30
2022-12-18T22:35:10.612Z,-3.30
2022-12-18T22:37:42.234Z,-3.30
2022-12-18T22:40:23.665Z,-3.30
2022-12-18T22:42:54.549Z,-3.30
2022-12-18T22:45:22.567Z,-3.20
2022-12-18T22:47:56.656Z,-3.20
2022-12-18T22:50:24.556Z,-3.20
2022-12-18T22:52:52.395Z,-3.20
2022-12-18T22:55:20.682Z,-3.20
2022-12-18T22:57:49.352Z,-3.20
2022-12-18T23:00:23.974Z,-3.20
2022-12-18T23:03:00.416Z,-3.20
2022-12-18T23:05:30.241Z,-3.20
2022-12-18T23:07:58.713Z,-3.20
2022-12-18T23:10:27.157Z,-3.10
2022-12-18T23:12:55.151Z,-3.10
2022-12-18T23:15:27.822Z,-3.20
2022-12-18T23:17:57.109Z,-3.10
2022-12-18T23:20:25.189Z,-3.10
2022-12-18T23:22:53.180Z,-3.10
2022-12-18T23:25:21.199Z,-3.10
2022-12-18T23:27:49.373Z,-3.20
2022-12-18T23:30:17.322Z,-3.20
2022-12-18T23:32:45.253Z,-3.10
2022-12-18T23:35:15.591Z,-3.20
2022-12-18T23:37:58.801Z,-3.20
2022-12-18T23:40:27.953Z,-3.10
2022-12-18T23:42:57.001Z,-3.10
2022-12-18T23:45:25.219Z,-3.20
2022-12-18T23:47:53.426Z,-3.10
2022-12-18T23:50:25.410Z,-3.20
2022-12-18T23:53:04.886Z,-3.10
2022-12-18T23:55:34.728Z,-3.20
2022-12-18T23:58:02.608Z,-3.20
